createdAt,value
2017-04-15T00:00:09.195Z,0
2017-04-15T00:01:21.766Z,0
2017-04-15T00:02:34.283Z,0
2017-04-15T00:03:46.829Z,0
2017-04-15T00:04:59.356Z,0
2017-04-15T00:06:11.937Z,0
2017-04-15T00:07:24.509Z,0
2017-04-15T00:08:37.490Z,0
2017-04-15T00:09:49.437Z,0
2017-04-15T00:11:01.962Z,0
2017-04-15T00:12:14.206Z,0
2017-04-15T00:13:26.460Z,0
2017-04-15T00:14:39.013Z,0
2017-04-15T00:15:51.541Z,0
2017-04-15T00:17:04.090Z,0
2017-04-15T00:18:16.631Z,0
2017-04-15T00:19:29.176Z,0
2017-04-15T00:20:41.696Z,0
2017-04-15T00:21:53.919Z,0
2017-04-15T00:23:06.706Z,0
2017-04-15T00:24:19.277Z,0
2017-04-15T00:25:31.780Z,0
2017-04-15T00:26:44.305Z,0
2017-04-15T00:27:56.547Z,0
2017-04-15T00:29:09.069Z,0
2017-04-15T00:30:21.589Z,0
2017-04-15T00:31:34.131Z,0
2017-04-15T00:32:46.659Z,0
2017-04-15T00:33:59.202Z,0
2017-04-15T00:35:11.697Z,0
2017-04-15T00:36:24.218Z,0
2017-04-15T00:37:36.783Z,0
2017-04-15T00:38:49.297Z,0
2017-04-15T00:40:02.009Z,0
2017-04-15T00:41:14.234Z,0
2017-04-15T00:42:26.755Z,0
2017-04-15T00:43:39.287Z,0
2017-04-15T00:44:51.515Z,0
2017-04-15T00:46:04.039Z,0
2017-04-15T00:47:16.604Z,0
2017-04-15T00:48:29.152Z,0
2017-04-15T00:49:41.648Z,0
2017-04-15T00:50:54.179Z,0
2017-04-15T00:52:06.720Z,0
2017-04-15T00:53:19.296Z,0
2017-04-15T00:54:31.936Z,0
2017-04-15T00:55:44.483Z,0
2017-04-15T00:56:57.023Z,0
2017-04-15T00:58:09.289Z,0
2017-04-15T00:59:21.853Z,0
2017-04-15T01:00:34.386Z,0
2017-04-15T01:01:46.586Z,0
2017-04-15T01:02:59.149Z,0
2017-04-15T01:04:11.702Z,0
2017-04-15T01:05:24.224Z,0
2017-04-15T01:06:36.746Z,0
2017-04-15T01:07:48.983Z,0
2017-04-15T01:09:01.513Z,0
2017-04-15T01:10:14.147Z,0
2017-04-15T01:11:26.702Z,0
2017-04-15T01:12:39.552Z,0
2017-04-15T01:13:52.097Z,0
2017-04-15T01:15:04.612Z,0
2017-04-15T01:16:16.829Z,0
2017-04-15T01:17:29.604Z,0
2017-04-15T01:18:42.151Z,0
2017-04-15T01:19:54.679Z,0
2017-04-15T01:21:06.909Z,0
2017-04-15T01:22:19.441Z,0
2017-04-15T01:23:31.989Z,0
2017-04-15T01:24:44.539Z,0
2017-04-15T01:25:56.775Z,0
2017-04-15T01:27:09.314Z,0
2017-04-15T01:28:21.885Z,0
2017-04-15T01:29:34.413Z,0
2017-04-15T01:30:46.627Z,0
2017-04-15T01:31:59.154Z,0
2017-04-15T01:33:11.697Z,0
2017-04-15T01:34:24.226Z,0
2017-04-15T01:35:36.735Z,0
2017-04-15T01:36:49.244Z,0
2017-04-15T01:38:01.784Z,0
2017-04-15T01:39:14.310Z,0
2017-04-15T01:40:26.852Z,0
2017-04-15T01:41:39.372Z,0
2017-04-15T01:42:52.022Z,0
2017-04-15T01:44:04.556Z,0
2017-04-15T01:45:17.056Z,0
2017-04-15T01:46:29.577Z,0
2017-04-15T01:47:42.135Z,0
2017-04-15T01:48:54.373Z,0
2017-04-15T01:50:06.597Z,0
2017-04-15T01:51:18.518Z,0
2017-04-15T01:52:31.061Z,0
2017-04-15T01:53:43.574Z,0
2017-04-15T01:54:56.126Z,0
2017-04-15T01:56:08.670Z,0
2017-04-15T01:57:21.195Z,0
2017-04-15T01:58:33.407Z,0
2017-04-15T01:59:45.618Z,0
2017-04-15T02:00:58.159Z,0
2017-04-15T02:02:10.678Z,0
2017-04-15T02:03:23.191Z,0
2017-04-15T02:04:35.716Z,0
2017-04-15T02:05:48.243Z,0
2017-04-15T02:07:00.459Z,0
2017-04-15T02:08:13.012Z,0
2017-04-15T02:09:25.554Z,0
2017-04-15T02:10:38.092Z,0
2017-04-15T02:11:50.895Z,0
2017-04-15T02:13:03.441Z,0
2017-04-15T02:14:16.023Z,0
2017-04-15T02:15:28.612Z,0
2017-04-15T02:16:41.157Z,0
2017-04-15T02:17:53.679Z,0
2017-04-15T02:19:05.913Z,0
2017-04-15T02:20:18.448Z,0
2017-04-15T02:21:31.016Z,0
2017-04-15T02:22:43.559Z,0
2017-04-15T02:23:55.787Z,0
2017-04-15T02:25:08.305Z,0
2017-04-15T02:26:20.825Z,0
2017-04-15T02:27:33.346Z,0
2017-04-15T02:28:45.917Z,0
2017-04-15T02:29:57.864Z,0
2017-04-15T02:31:10.534Z,0
2017-04-15T02:32:23.067Z,0
2017-04-15T02:33:35.902Z,0
2017-04-15T02:34:48.433Z,0
2017-04-15T02:36:00.968Z,0
2017-04-15T02:37:13.477Z,0
2017-04-15T02:38:26.031Z,0
2017-04-15T02:39:38.276Z,0
2017-04-15T02:40:50.772Z,0
2017-04-15T02:42:02.996Z,0
2017-04-15T02:43:15.234Z,0
2017-04-15T02:44:27.781Z,0
2017-04-15T02:45:40.655Z,0
2017-04-15T02:46:53.385Z,0
2017-04-15T02:48:05.922Z,0
2017-04-15T02:49:18.424Z,0
2017-04-15T02:50:30.939Z,0
2017-04-15T02:51:43.460Z,0
2017-04-15T02:52:55.681Z,0
2017-04-15T02:54:07.909Z,0
2017-04-15T02:55:20.452Z,0
2017-04-15T02:56:32.965Z,0
2017-04-15T02:57:45.489Z,0
2017-04-15T02:58:58.003Z,0
2017-04-15T03:00:09.928Z,0
2017-04-15T03:01:22.427Z,0
2017-04-15T03:02:34.695Z,0
2017-04-15T03:03:47.394Z,0
2017-04-15T03:04:59.890Z,0
2017-04-15T03:06:12.709Z,0
2017-04-15T03:07:25.270Z,0
2017-04-15T03:08:37.206Z,0
2017-04-15T03:09:49.728Z,0
2017-04-15T03:11:02.280Z,0
2017-04-15T03:12:14.791Z,0
2017-04-15T03:13:27.305Z,0
2017-04-15T03:14:39.836Z,0
2017-04-15T03:15:52.355Z,0
2017-04-15T03:17:04.854Z,0
2017-04-15T03:18:17.073Z,0
2017-04-15T03:19:29.709Z,0
2017-04-15T03:20:42.212Z,0
2017-04-15T03:21:54.429Z,0
2017-04-15T03:23:06.958Z,0
2017-04-15T03:24:19.477Z,0
2017-04-15T03:25:31.991Z,0
2017-04-15T03:26:44.535Z,0
2017-04-15T03:27:57.066Z,0
2017-04-15T03:29:09.608Z,0
2017-04-15T03:30:22.150Z,0
2017-04-15T03:31:34.654Z,0
2017-04-15T03:32:47.196Z,0
2017-04-15T03:33:59.697Z,4
2017-04-15T03:35:12.214Z,4
2017-04-15T03:36:24.426Z,4
2017-04-15T03:37:36.955Z,4
2017-04-15T03:38:49.793Z,4
2017-04-15T03:40:02.324Z,4
2017-04-15T03:41:14.867Z,8
2017-04-15T03:42:27.388Z,8
2017-04-15T03:43:39.902Z,8
2017-04-15T03:44:52.709Z,8
2017-04-15T03:46:05.275Z,12
2017-04-15T03:47:17.822Z,16
2017-04-15T03:48:30.347Z,20
2017-04-15T03:49:42.889Z,24
2017-04-15T03:50:55.405Z,32
2017-04-15T03:52:07.633Z,36
2017-04-15T03:53:20.173Z,40
2017-04-15T03:54:32.815Z,52
2017-04-15T03:55:45.347Z,56
2017-04-15T03:56:57.867Z,68
2017-04-15T03:58:10.406Z,80
2017-04-15T03:59:22.923Z,92
2017-04-15T04:00:35.180Z,104
2017-04-15T04:01:47.700Z,120
2017-04-15T04:03:00.238Z,136
2017-04-15T04:04:12.439Z,152
2017-04-15T04:05:24.937Z,172
2017-04-15T04:06:37.456Z,196
2017-04-15T04:07:49.980Z,224
2017-04-15T04:09:02.528Z,252
2017-04-15T04:10:15.089Z,284
2017-04-15T04:11:27.617Z,316
2017-04-15T04:12:40.392Z,352
2017-04-15T04:13:52.907Z,384
2017-04-15T04:15:05.127Z,428
2017-04-15T04:16:17.616Z,464
2017-04-15T04:17:30.123Z,508
2017-04-15T04:18:42.666Z,556
2017-04-15T04:19:54.592Z,604
2017-04-15T04:21:06.835Z,656
2017-04-15T04:22:19.350Z,716
2017-04-15T04:23:31.574Z,780
2017-04-15T04:24:44.095Z,852
2017-04-15T04:25:56.597Z,924
2017-04-15T04:27:09.133Z,1000
2017-04-15T04:28:21.637Z,1080
2017-04-15T04:29:34.106Z,1160
2017-04-15T04:30:46.325Z,1240
2017-04-15T04:31:58.522Z,1320
2017-04-15T04:33:11.311Z,1408
2017-04-15T04:34:23.516Z,1496
2017-04-15T04:35:36.061Z,1576
2017-04-15T04:36:48.582Z,1644
2017-04-15T04:38:01.078Z,1708
2017-04-15T04:39:13.921Z,1768
2017-04-15T04:40:26.458Z,1840
2017-04-15T04:41:38.991Z,1928
2017-04-15T04:42:51.536Z,2016
2017-04-15T04:44:04.083Z,2116
2017-04-15T04:45:16.327Z,2228
2017-04-15T04:46:28.822Z,2356
2017-04-15T04:47:41.335Z,2500
2017-04-15T04:48:53.568Z,2660
2017-04-15T04:50:05.827Z,2836
2017-04-15T04:51:18.334Z,3036
2017-04-15T04:52:30.901Z,3248
2017-04-15T04:53:43.439Z,3416
2017-04-15T04:54:55.974Z,3528
2017-04-15T04:56:08.484Z,3616
2017-04-15T04:57:20.992Z,3708
2017-04-15T04:58:33.526Z,3840
2017-04-15T04:59:46.097Z,4000
2017-04-15T05:00:58.628Z,4148
2017-04-15T05:02:10.846Z,4256
2017-04-15T05:03:23.548Z,4328
2017-04-15T05:04:35.882Z,4356
2017-04-15T05:05:48.766Z,4364
2017-04-15T05:07:01.297Z,4336
2017-04-15T05:08:13.523Z,4296
2017-04-15T05:09:26.053Z,4268
2017-04-15T05:10:38.564Z,4264
2017-04-15T05:11:51.085Z,4292
2017-04-15T05:13:03.610Z,4368
2017-04-15T05:14:16.155Z,4508
2017-04-15T05:15:28.423Z,4728
2017-04-15T05:16:40.947Z,5040
2017-04-15T05:17:53.467Z,5380
2017-04-15T05:19:06.035Z,5648
2017-04-15T05:20:18.562Z,5772
2017-04-15T05:21:30.548Z,5732
2017-04-15T05:22:43.368Z,5560
2017-04-15T05:23:55.594Z,5356
2017-04-15T05:25:08.304Z,5240
2017-04-15T05:26:20.836Z,5220
2017-04-15T05:27:33.378Z,5272
2017-04-15T05:28:45.921Z,5364
2017-04-15T05:29:58.441Z,5496
2017-04-15T05:31:10.671Z,5660
2017-04-15T05:32:23.191Z,5844
2017-04-15T05:33:35.705Z,6020
2017-04-15T05:34:48.236Z,6136
2017-04-15T05:36:00.450Z,6164
2017-04-15T05:37:12.977Z,6092
2017-04-15T05:38:25.799Z,5928
2017-04-15T05:39:38.341Z,5704
2017-04-15T05:40:50.843Z,5476
2017-04-15T05:42:03.362Z,5260
2017-04-15T05:43:15.882Z,5088
2017-04-15T05:44:28.653Z,4960
2017-04-15T05:45:40.898Z,4852
2017-04-15T05:46:53.092Z,4764
2017-04-15T05:48:05.317Z,4696
2017-04-15T05:49:17.862Z,4708
2017-04-15T05:50:30.433Z,4852
2017-04-15T05:51:42.967Z,5128
2017-04-15T05:52:55.496Z,5516
2017-04-15T05:54:08.022Z,5964
2017-04-15T05:55:20.567Z,6456
2017-04-15T05:56:33.080Z,7008
2017-04-15T05:57:45.630Z,7628
2017-04-15T05:58:58.158Z,8236
2017-04-15T06:00:10.647Z,8788
2017-04-15T06:01:23.168Z,9228
2017-04-15T06:02:35.415Z,9396
2017-04-15T06:03:47.960Z,9156
2017-04-15T06:05:00.656Z,8572
2017-04-15T06:06:13.182Z,7940
2017-04-15T06:07:25.398Z,7452
2017-04-15T06:08:37.936Z,7180
2017-04-15T06:09:50.166Z,7136
2017-04-15T06:11:03.010Z,7288
2017-04-15T06:12:15.534Z,7520
2017-04-15T06:13:28.058Z,7568
2017-04-15T06:14:40.605Z,7304
2017-04-15T06:15:53.147Z,6808
2017-04-15T06:17:05.669Z,6348
2017-04-15T06:18:18.211Z,6148
2017-04-15T06:19:30.756Z,6120
2017-04-15T06:20:43.302Z,6012
2017-04-15T06:21:55.828Z,5704
2017-04-15T06:23:08.378Z,5288
2017-04-15T06:24:20.950Z,4916
2017-04-15T06:25:33.711Z,4660
2017-04-15T06:26:45.785Z,4508
2017-04-15T06:27:58.378Z,4460
2017-04-15T06:29:10.899Z,4536
2017-04-15T06:30:23.425Z,4752
2017-04-15T06:31:35.971Z,5044
2017-04-15T06:32:48.491Z,5252
2017-04-15T06:34:01.036Z,5348
2017-04-15T06:35:13.581Z,5404
2017-04-15T06:36:26.116Z,5508
2017-04-15T06:37:38.373Z,5632
2017-04-15T06:38:50.916Z,5776
2017-04-15T06:40:03.441Z,6008
2017-04-15T06:41:15.985Z,6216
2017-04-15T06:42:28.505Z,6296
2017-04-15T06:43:41.302Z,6168
2017-04-15T06:44:53.824Z,6032
2017-04-15T06:46:06.384Z,6128
2017-04-15T06:47:18.613Z,6220
2017-04-15T06:48:30.926Z,6220
2017-04-15T06:49:43.637Z,6212
2017-04-15T06:50:56.167Z,6088
2017-04-15T06:52:08.424Z,5988
2017-04-15T06:53:20.969Z,5940
2017-04-15T06:54:33.537Z,6140
2017-04-15T06:55:46.059Z,6324
2017-04-15T06:56:58.560Z,6392
2017-04-15T06:58:10.779Z,6404
2017-04-15T06:59:23.302Z,6620
2017-04-15T07:00:35.837Z,6960
2017-04-15T07:01:48.379Z,7500
2017-04-15T07:03:00.913Z,7964
2017-04-15T07:04:13.135Z,8580
2017-04-15T07:05:25.654Z,9036
2017-04-15T07:06:38.217Z,8876
2017-04-15T07:07:50.467Z,8292
2017-04-15T07:09:03.163Z,7464
2017-04-15T07:10:15.966Z,6680
2017-04-15T07:11:28.756Z,6144
2017-04-15T07:12:41.276Z,6184
2017-04-15T07:13:53.814Z,6656
2017-04-15T07:15:06.370Z,6900
2017-04-15T07:16:18.920Z,7580
2017-04-15T07:17:31.134Z,8884
2017-04-15T07:18:43.685Z,10636
2017-04-15T07:19:56.226Z,12696
2017-04-15T07:21:08.752Z,14540
2017-04-15T07:22:21.546Z,15928
2017-04-15T07:23:34.107Z,16196
2017-04-15T07:24:46.660Z,15720
2017-04-15T07:25:59.177Z,14188
2017-04-15T07:27:11.705Z,12712
2017-04-15T07:28:24.250Z,12644
2017-04-15T07:29:37.023Z,12496
2017-04-15T07:30:49.569Z,10432
2017-04-15T07:32:02.043Z,8980
2017-04-15T07:33:14.581Z,8524
2017-04-15T07:34:27.103Z,7804
2017-04-15T07:35:39.648Z,7336
2017-04-15T07:36:51.874Z,8428
2017-04-15T07:38:04.407Z,10268
2017-04-15T07:39:16.936Z,11384
2017-04-15T07:40:29.460Z,13828
2017-04-15T07:41:42.011Z,15704
2017-04-15T07:42:54.554Z,15680
2017-04-15T07:44:07.098Z,13536
2017-04-15T07:45:19.636Z,12704
2017-04-15T07:46:31.886Z,11832
2017-04-15T07:47:44.412Z,9532
2017-04-15T07:48:57.210Z,9100
2017-04-15T07:50:09.450Z,9308
2017-04-15T07:51:21.767Z,9212
2017-04-15T07:52:34.337Z,9400
2017-04-15T07:53:46.588Z,8576
2017-04-15T07:54:59.103Z,7632
2017-04-15T07:56:11.012Z,7436
2017-04-15T07:57:23.550Z,6524
2017-04-15T07:58:35.808Z,6976
2017-04-15T07:59:48.267Z,9492
2017-04-15T08:01:00.788Z,8596
2017-04-15T08:02:13.325Z,6596
2017-04-15T08:03:25.854Z,5840
2017-04-15T08:04:38.367Z,5464
2017-04-15T08:05:50.913Z,4332
2017-04-15T08:07:03.438Z,4656
2017-04-15T08:08:15.642Z,4964
2017-04-15T08:09:28.190Z,5128
2017-04-15T08:10:41.076Z,6036
2017-04-15T08:11:53.321Z,6228
2017-04-15T08:13:05.851Z,6196
2017-04-15T08:14:18.395Z,6376
2017-04-15T08:15:30.916Z,7528
2017-04-15T08:16:43.484Z,8052
2017-04-15T08:17:56.025Z,7188
2017-04-15T08:19:08.580Z,6596
2017-04-15T08:20:20.525Z,6992
2017-04-15T08:21:33.311Z,6972
2017-04-15T08:22:45.856Z,7380
2017-04-15T08:23:58.388Z,7320
2017-04-15T08:25:10.909Z,6576
2017-04-15T08:26:23.446Z,7088
2017-04-15T08:27:35.975Z,8032
2017-04-15T08:28:48.518Z,8340
2017-04-15T08:30:01.189Z,7376
2017-04-15T08:31:13.713Z,6888
2017-04-15T08:32:25.930Z,8476
2017-04-15T08:33:38.475Z,11752
2017-04-15T08:34:50.700Z,16764
2017-04-15T08:36:03.218Z,18688
2017-04-15T08:37:15.448Z,14032
2017-04-15T08:38:27.985Z,11740
2017-04-15T08:39:40.536Z,11996
2017-04-15T08:40:52.755Z,12492
2017-04-15T08:42:05.298Z,12924
2017-04-15T08:43:18.073Z,10812
2017-04-15T08:44:30.607Z,11128
2017-04-15T08:45:43.161Z,8904
2017-04-15T08:46:55.702Z,10416
2017-04-15T08:48:08.228Z,11620
2017-04-15T08:49:20.878Z,9712
2017-04-15T08:50:33.424Z,8652
2017-04-15T08:51:45.994Z,9936
2017-04-15T08:52:58.540Z,12028
2017-04-15T08:54:11.085Z,12496
2017-04-15T08:55:23.332Z,14980
2017-04-15T08:56:35.874Z,17248
2017-04-15T08:57:48.400Z,17228
2017-04-15T08:59:00.933Z,16364
2017-04-15T09:00:13.416Z,16608
2017-04-15T09:01:25.964Z,12256
2017-04-15T09:02:38.207Z,13948
2017-04-15T09:03:50.750Z,13208
2017-04-15T09:05:03.274Z,13992
2017-04-15T09:06:15.820Z,16128
2017-04-15T09:07:28.365Z,10368
2017-04-15T09:08:41.113Z,10360
2017-04-15T09:09:53.739Z,13892
2017-04-15T09:11:06.275Z,15572
2017-04-15T09:12:18.796Z,12180
2017-04-15T09:13:31.337Z,8584
2017-04-15T09:14:43.891Z,8200
2017-04-15T09:15:56.433Z,11124
2017-04-15T09:17:08.947Z,11236
2017-04-15T09:18:20.881Z,8232
2017-04-15T09:19:33.424Z,5824
2017-04-15T09:20:45.963Z,4764
2017-04-15T09:21:58.512Z,6412
2017-04-15T09:23:10.713Z,9756
2017-04-15T09:24:22.948Z,9268
2017-04-15T09:25:35.472Z,9176
2017-04-15T09:26:48.326Z,11516
2017-04-15T09:28:00.867Z,10800
2017-04-15T09:29:13.392Z,7000
2017-04-15T09:30:25.930Z,6100
2017-04-15T09:31:38.497Z,9796
2017-04-15T09:32:50.727Z,9924
2017-04-15T09:34:03.228Z,10652
2017-04-15T09:35:15.760Z,12964
2017-04-15T09:36:28.296Z,13296
2017-04-15T09:37:40.829Z,10304
2017-04-15T09:38:53.384Z,10940
2017-04-15T09:40:05.934Z,6300
2017-04-15T09:41:18.165Z,5820
2017-04-15T09:42:30.690Z,6728
2017-04-15T09:43:43.240Z,14292
2017-04-15T09:44:55.861Z,13220
2017-04-15T09:46:08.509Z,9576
2017-04-15T09:47:21.044Z,6820
2017-04-15T09:48:33.874Z,7168
2017-04-15T09:49:46.125Z,5756
2017-04-15T09:50:58.660Z,6896
2017-04-15T09:52:11.170Z,8436
2017-04-15T09:53:23.712Z,8760
2017-04-15T09:54:36.224Z,7972
2017-04-15T09:55:48.766Z,6832
2017-04-15T09:57:01.295Z,10324
2017-04-15T09:58:13.215Z,13068
2017-04-15T09:59:25.667Z,12428
2017-04-15T10:00:38.184Z,9172
2017-04-15T10:01:50.423Z,7492
2017-04-15T10:03:02.974Z,5604
2017-04-15T10:04:15.294Z,5480
2017-04-15T10:05:27.496Z,5812
2017-04-15T10:06:40.041Z,7824
2017-04-15T10:07:52.258Z,7672
2017-04-15T10:09:04.771Z,6228
2017-04-15T10:10:17.303Z,6100
2017-04-15T10:11:29.838Z,6756
2017-04-15T10:12:42.370Z,9292
2017-04-15T10:13:54.909Z,9676
2017-04-15T10:15:07.116Z,8248
2017-04-15T10:16:19.671Z,8892
2017-04-15T10:17:32.203Z,10464
2017-04-15T10:18:44.746Z,8720
2017-04-15T10:19:57.259Z,6948
2017-04-15T10:21:09.779Z,14108
2017-04-15T10:22:22.900Z,15056
2017-04-15T10:23:35.786Z,13308
2017-04-15T10:24:48.503Z,12740
2017-04-15T10:26:01.042Z,12220
2017-04-15T10:27:13.563Z,11128
2017-04-15T10:28:26.116Z,9352
2017-04-15T10:29:38.659Z,6904
2017-04-15T10:30:51.179Z,6392
2017-04-15T10:32:03.671Z,6012
2017-04-15T10:33:16.239Z,6836
2017-04-15T10:34:28.443Z,10256
2017-04-15T10:35:40.669Z,10084
2017-04-15T10:36:53.209Z,8760
2017-04-15T10:38:05.723Z,7492
2017-04-15T10:39:17.951Z,6484
2017-04-15T10:40:30.223Z,7968
2017-04-15T10:41:42.760Z,8452
2017-04-15T10:42:55.320Z,7904
2017-04-15T10:44:08.035Z,6768
2017-04-15T10:45:20.556Z,6944
2017-04-15T10:46:33.079Z,6412
2017-04-15T10:47:45.318Z,6444
2017-04-15T10:48:57.849Z,9412
2017-04-15T10:50:10.094Z,10456
2017-04-15T10:51:22.631Z,8072
2017-04-15T10:52:35.185Z,6972
2017-04-15T10:53:47.705Z,5976
2017-04-15T10:55:00.224Z,6172
2017-04-15T10:56:12.446Z,5988
2017-04-15T10:57:24.985Z,9004
2017-04-15T10:58:37.539Z,14844
2017-04-15T10:59:49.802Z,15180
2017-04-15T11:01:02.355Z,17216
2017-04-15T11:02:14.973Z,14788
2017-04-15T11:03:27.519Z,14912
2017-04-15T11:04:40.050Z,11660
2017-04-15T11:05:52.565Z,12400
2017-04-15T11:07:05.082Z,10556
2017-04-15T11:08:17.599Z,9464
2017-04-15T11:09:30.124Z,8092
2017-04-15T11:10:42.648Z,7764
2017-04-15T11:11:55.183Z,8148
2017-04-15T11:13:07.707Z,8676
2017-04-15T11:14:20.237Z,7524
2017-04-15T11:15:32.795Z,6432
2017-04-15T11:16:45.020Z,6696
2017-04-15T11:17:57.588Z,6864
2017-04-15T11:19:10.161Z,6312
2017-04-15T11:20:22.718Z,6448
2017-04-15T11:21:35.438Z,7248
2017-04-15T11:22:47.656Z,6892
2017-04-15T11:24:00.175Z,6072
2017-04-15T11:25:12.716Z,5184
2017-04-15T11:26:25.249Z,5396
2017-04-15T11:27:37.808Z,4676
2017-04-15T11:28:50.340Z,4292
2017-04-15T11:30:02.878Z,4780
2017-04-15T11:31:15.100Z,4144
2017-04-15T11:32:27.321Z,3932
2017-04-15T11:33:39.867Z,4632
2017-04-15T11:34:52.363Z,5408
2017-04-15T11:36:04.880Z,4076
2017-04-15T11:37:17.129Z,6004
2017-04-15T11:38:29.342Z,7408
2017-04-15T11:39:41.846Z,8508
2017-04-15T11:40:54.388Z,6900
2017-04-15T11:42:06.982Z,4036
2017-04-15T11:43:19.380Z,4076
2017-04-15T11:44:31.634Z,6076
2017-04-15T11:45:44.177Z,5272
2017-04-15T11:46:56.676Z,7196
2017-04-15T11:48:08.898Z,9892
2017-04-15T11:49:21.118Z,12400
2017-04-15T11:50:33.664Z,10256
2017-04-15T11:51:46.227Z,8872
2017-04-15T11:52:58.770Z,9060
2017-04-15T11:54:11.543Z,11124
2017-04-15T11:55:24.085Z,9636
2017-04-15T11:56:36.592Z,7668
2017-04-15T11:57:49.145Z,9384
2017-04-15T11:59:01.714Z,10772
2017-04-15T12:00:13.947Z,10616
2017-04-15T12:01:26.739Z,12032
2017-04-15T12:02:39.273Z,14708
2017-04-15T12:03:51.857Z,12424
2017-04-15T12:05:04.385Z,9872
2017-04-15T12:06:16.910Z,11080
2017-04-15T12:07:29.452Z,14108
2017-04-15T12:08:41.974Z,13108
2017-04-15T12:09:54.494Z,13884
2017-04-15T12:11:07.019Z,15296
2017-04-15T12:12:19.241Z,17316
2017-04-15T12:13:31.757Z,19616
2017-04-15T12:14:44.258Z,17824
2017-04-15T12:15:56.816Z,14476
2017-04-15T12:17:08.422Z,13740
2017-04-15T12:18:20.047Z,15656
2017-04-15T12:19:32.604Z,21344
2017-04-15T12:20:45.358Z,22848
2017-04-15T12:21:57.900Z,26368
2017-04-15T12:23:10.449Z,27296
2017-04-15T12:24:22.949Z,28416
2017-04-15T12:25:35.166Z,26528
2017-04-15T12:26:47.721Z,27840
2017-04-15T12:28:00.250Z,17664
2017-04-15T12:29:12.797Z,16236
2017-04-15T12:30:25.300Z,17920
2017-04-15T12:31:37.839Z,18976
2017-04-15T12:32:50.384Z,15696
2017-04-15T12:34:02.915Z,15116
2017-04-15T12:35:15.437Z,16844
2017-04-15T12:36:27.379Z,13612
2017-04-15T12:37:39.302Z,11512
2017-04-15T12:38:50.921Z,16564
2017-04-15T12:40:03.458Z,12184
2017-04-15T12:41:15.719Z,16232
2017-04-15T12:42:28.254Z,10928
2017-04-15T12:43:40.780Z,7292
2017-04-15T12:44:53.307Z,6592
2017-04-15T12:46:05.840Z,7052
2017-04-15T12:47:17.495Z,8232
2017-04-15T12:48:29.417Z,9108
2017-04-15T12:49:41.665Z,11568
2017-04-15T12:50:54.222Z,10876
2017-04-15T12:52:06.794Z,14552
2017-04-15T12:53:19.346Z,14880
2017-04-15T12:54:31.622Z,14352
2017-04-15T12:55:44.164Z,12024
2017-04-15T12:56:56.685Z,7280
2017-04-15T12:58:08.912Z,2108
2017-04-15T12:59:21.669Z,4712
2017-04-15T13:00:34.492Z,6228
2017-04-15T13:01:46.812Z,5200
2017-04-15T13:02:59.365Z,4356
2017-04-15T13:04:11.890Z,4936
2017-04-15T13:05:24.132Z,4632
2017-04-15T13:06:36.653Z,7844
2017-04-15T13:07:49.173Z,9508
2017-04-15T13:09:01.669Z,11244
2017-04-15T13:10:14.218Z,11560
2017-04-15T13:11:26.438Z,9312
2017-04-15T13:12:38.657Z,8668
2017-04-15T13:13:51.178Z,7244
2017-04-15T13:15:03.703Z,8912
2017-04-15T13:16:16.254Z,12616
2017-04-15T13:17:28.491Z,18304
2017-04-15T13:18:40.730Z,26112
2017-04-15T13:19:53.287Z,23936
2017-04-15T13:21:05.829Z,25760
2017-04-15T13:22:18.449Z,22752
2017-04-15T13:23:30.970Z,19072
2017-04-15T13:24:43.509Z,15316
2017-04-15T13:25:56.019Z,12788
2017-04-15T13:27:08.561Z,15672
2017-04-15T13:28:21.106Z,17760
2017-04-15T13:29:33.653Z,15008
2017-04-15T13:30:46.177Z,10200
2017-04-15T13:31:58.695Z,7772
2017-04-15T13:33:11.229Z,8028
2017-04-15T13:34:23.779Z,8448
2017-04-15T13:35:36.329Z,8500
2017-04-15T13:36:48.867Z,7580
2017-04-15T13:38:01.396Z,6892
2017-04-15T13:39:13.921Z,7476
2017-04-15T13:40:26.566Z,7480
2017-04-15T13:41:38.862Z,7360
2017-04-15T13:42:51.107Z,9960
2017-04-15T13:44:03.647Z,12420
2017-04-15T13:45:16.171Z,12644
2017-04-15T13:46:28.688Z,11768
2017-04-15T13:47:41.239Z,10084
2017-04-15T13:48:53.759Z,9040
2017-04-15T13:50:05.974Z,9008
2017-04-15T13:51:18.204Z,8288
2017-04-15T13:52:30.750Z,8680
2017-04-15T13:53:43.293Z,10700
2017-04-15T13:54:55.841Z,12388
2017-04-15T13:56:08.415Z,11148
2017-04-15T13:57:20.977Z,9088
2017-04-15T13:58:33.518Z,6624
2017-04-15T13:59:46.550Z,5444
2017-04-15T14:00:59.043Z,5160
2017-04-15T14:02:11.543Z,5000
2017-04-15T14:03:23.765Z,5696
2017-04-15T14:04:36.608Z,5452
2017-04-15T14:05:49.152Z,5456
2017-04-15T14:07:01.702Z,5192
2017-04-15T14:08:14.193Z,5256
2017-04-15T14:09:26.974Z,6512
2017-04-15T14:10:39.488Z,7440
2017-04-15T14:11:52.009Z,7656
2017-04-15T14:13:04.252Z,8532
2017-04-15T14:14:16.823Z,9992
2017-04-15T14:15:29.323Z,11424
2017-04-15T14:16:42.240Z,14000
2017-04-15T14:17:54.765Z,15792
2017-04-15T14:19:07.313Z,18112
2017-04-15T14:20:20.104Z,19360
2017-04-15T14:21:32.348Z,19552
2017-04-15T14:22:44.845Z,19776
2017-04-15T14:23:57.358Z,19936
2017-04-15T14:25:09.565Z,20032
2017-04-15T14:26:22.133Z,20032
2017-04-15T14:27:34.646Z,19872
2017-04-15T14:28:47.177Z,19808
2017-04-15T14:29:59.723Z,19744
2017-04-15T14:31:11.971Z,19360
2017-04-15T14:32:24.515Z,18880
2017-04-15T14:33:37.037Z,17696
2017-04-15T14:34:49.680Z,17092
2017-04-15T14:36:02.330Z,16908
2017-04-15T14:37:14.919Z,16336
2017-04-15T14:38:27.170Z,17108
2017-04-15T14:39:39.692Z,16624
2017-04-15T14:40:52.232Z,15440
2017-04-15T14:42:04.733Z,14984
2017-04-15T14:43:17.278Z,12652
2017-04-15T14:44:29.828Z,8040
2017-04-15T14:45:42.059Z,4780
2017-04-15T14:46:54.605Z,4372
2017-04-15T14:48:07.139Z,9360
2017-04-15T14:49:19.683Z,14040
2017-04-15T14:50:32.229Z,15144
2017-04-15T14:51:44.845Z,13756
2017-04-15T14:52:57.442Z,13188
2017-04-15T14:54:09.963Z,12296
2017-04-15T14:55:22.476Z,11716
2017-04-15T14:56:34.707Z,11468
2017-04-15T14:57:47.279Z,10856
2017-04-15T14:58:59.826Z,11140
2017-04-15T15:00:12.071Z,11624
2017-04-15T15:01:24.292Z,12116
2017-04-15T15:02:36.580Z,12764
2017-04-15T15:03:49.361Z,13364
2017-04-15T15:05:01.908Z,13804
2017-04-15T15:06:14.447Z,14228
2017-04-15T15:07:26.971Z,13632
2017-04-15T15:08:39.206Z,13012
2017-04-15T15:09:51.777Z,12528
2017-04-15T15:11:04.348Z,12304
2017-04-15T15:12:16.870Z,12192
2017-04-15T15:13:29.118Z,12320
2017-04-15T15:14:41.652Z,12440
2017-04-15T15:15:54.218Z,12648
2017-04-15T15:17:06.478Z,12748
2017-04-15T15:18:19.024Z,12644
2017-04-15T15:19:31.543Z,12400
2017-04-15T15:20:44.078Z,12044
2017-04-15T15:21:56.318Z,11692
2017-04-15T15:23:08.864Z,11560
2017-04-15T15:24:21.384Z,11684
2017-04-15T15:25:33.916Z,11832
2017-04-15T15:26:46.256Z,12060
2017-04-15T15:27:58.903Z,12164
2017-04-15T15:29:11.419Z,11820
2017-04-15T15:30:23.940Z,13020
2017-04-15T15:31:36.454Z,13244
2017-04-15T15:32:48.986Z,11700
2017-04-15T15:34:01.521Z,9968
2017-04-15T15:35:13.769Z,10016
2017-04-15T15:36:26.312Z,10824
2017-04-15T15:37:38.837Z,9260
2017-04-15T15:38:51.368Z,9008
2017-04-15T15:40:03.907Z,9988
2017-04-15T15:41:16.457Z,8532
2017-04-15T15:42:28.701Z,8844
2017-04-15T15:43:40.895Z,8828
2017-04-15T15:44:53.423Z,8684
2017-04-15T15:46:05.758Z,7916
2017-04-15T15:47:17.983Z,7848
2017-04-15T15:48:30.228Z,9428
2017-04-15T15:49:42.775Z,9148
2017-04-15T15:50:55.320Z,8256
2017-04-15T15:52:07.847Z,8528
2017-04-15T15:53:20.381Z,8792
2017-04-15T15:54:32.892Z,7456
2017-04-15T15:55:44.832Z,6948
2017-04-15T15:56:57.078Z,6952
2017-04-15T15:58:09.638Z,7172
2017-04-15T15:59:21.901Z,6744
2017-04-15T16:00:34.458Z,6876
2017-04-15T16:01:46.991Z,7228
2017-04-15T16:02:59.584Z,7624
2017-04-15T16:04:12.129Z,8108
2017-04-15T16:05:24.371Z,8436
2017-04-15T16:06:36.610Z,8552
2017-04-15T16:07:49.131Z,8496
2017-04-15T16:09:01.684Z,8376
2017-04-15T16:10:14.222Z,8216
2017-04-15T16:11:26.751Z,8096
2017-04-15T16:12:39.293Z,8024
2017-04-15T16:13:51.821Z,8012
2017-04-15T16:15:04.343Z,8056
2017-04-15T16:16:16.579Z,8140
2017-04-15T16:17:28.805Z,8196
2017-04-15T16:18:41.687Z,8208
2017-04-15T16:19:54.473Z,8112